sensor_id;sensor_type;location;lat;lon;timestamp;pressure;altitude;pressure_sealevel;temperature;humidity
51807;BME280;37865;51.304;9.536;2023-11-19T00:00:04;99568.03;;;7.69;100.00
51807;BME280;37865;51.304;9.536;2023-11-19T00:02:31;99562.59;;;7.69;100.00
51807;BME280;37865;51.304;9.536;2023-11-19T00:04:57;99560.72;;;7.69;100.00
51807;BME280;37865;51.304;9.536;2023-11-19T00:07:23;99556.38;;;7.68;100.00
51807;BME280;37865;51.304;9.536;2023-11-19T00:09:48;99554.25;;;7.70;100.00
51807;BME280;37865;51.304;9.536;2023-11-19T00:12:14;99547.97;;;7.70;100.00
51807;BME280;37865;51.304;9.536;2023-11-19T00:14:39;99555.41;;;7.74;100.00
51807;BME280;37865;51.304;9.536;2023-11-19T00:17:04;99554.81;;;7.72;100.00
51807;BME280;37865;51.304;9.536;2023-11-19T00:19:29;99542.88;;;7.73;100.00
51807;BME280;37865;51.304;9.536;2023-11-19T00:21:55;99547.97;;;7.70;100.00
51807;BME280;37865;51.304;9.536;2023-11-19T00:24:20;99542.88;;;7.73;100.00
51807;BME280;37865;51.304;9.536;2023-11-19T00:26:45;99535.56;;;7.74;100.00
51807;BME280;37865;51.304;9.536;2023-11-19T00:29:11;99516.31;;;7.75;100.00
51807;BME280;37865;51.304;9.536;2023-11-19T00:31:38;99504.16;;;7.78;100.00
51807;BME280;37865;51.304;9.536;2023-11-19T00:34:04;99511.59;;;7.82;100.00
51807;BME280;37865;51.304;9.536;2023-11-19T00:36:31;99501.78;;;7.81;100.00
51807;BME280;37865;51.304;9.536;2023-11-19T00:38:56;99479.34;;;7.86;100.00
51807;BME280;37865;51.304;9.536;2023-11-19T00:41:21;99483.94;;;7.85;100.00
51807;BME280;37865;51.304;9.536;2023-11-19T00:43:47;99472.84;;;7.87;100.00
51807;BME280;37865;51.304;9.536;2023-11-19T00:46:13;99492.25;;;7.79;100.00
51807;BME280;37865;51.304;9.536;2023-11-19T00:48:39;99469.78;;;7.83;100.00
51807;BME280;37865;51.304;9.536;2023-11-19T00:51:04;99453.28;;;7.85;100.00
51807;BME280;37865;51.304;9.536;2023-11-19T00:53:29;99452.19;;;7.86;100.00
51807;BME280;37865;51.304;9.536;2023-11-19T00:55:55;99457.97;;;7.89;100.00
51807;BME280;37865;51.304;9.536;2023-11-19T00:58:20;99451.16;;;7.87;100.00
51807;BME280;37865;51.304;9.536;2023-11-19T01:00:45;99446.03;;;7.90;100.00
51807;BME280;37865;51.304;9.536;2023-11-19T01:03:10;99445.22;;;7.90;100.00
51807;BME280;37865;51.304;9.536;2023-11-19T01:05:36;99446.88;;;7.91;100.00
51807;BME280;37865;51.304;9.536;2023-11-19T01:08:01;99429.28;;;7.93;100.00
51807;BME280;37865;51.304;9.536;2023-11-19T01:10:29;99441.88;;;7.99;100.00
51807;BME280;37865;51.304;9.536;2023-11-19T01:12:54;99434.63;;;8.05;100.00
51807;BME280;37865;51.304;9.536;2023-11-19T01:15:20;99432.16;;;8.03;100.00
51807;BME280;37865;51.304;9.536;2023-11-19T01:17:45;99440.63;;;8.07;100.00
51807;BME280;37865;51.304;9.536;2023-11-19T01:20:10;99437.66;;;8.08;100.00
51807;BME280;37865;51.304;9.536;2023-11-19T01:22:38;99433.63;;;8.11;100.00
51807;BME280;37865;51.304;9.536;2023-11-19T01:25:03;99436.19;;;8.18;100.00
51807;BME280;37865;51.304;9.536;2023-11-19T01:27:30;99424.56;;;8.22;100.00
51807;BME280;37865;51.304;9.536;2023-11-19T01:29:55;99428.47;;;8.26;100.00
51807;BME280;37865;51.304;9.536;2023-11-19T01:32:20;99416.53;;;8.27;100.00
51807;BME280;37865;51.304;9.536;2023-11-19T01:34:45;99415.22;;;8.30;100.00
51807;BME280;37865;51.304;9.536;2023-11-19T01:37:11;99409.78;;;8.30;100.00
51807;BME280;37865;51.304;9.536;2023-11-19T01:39:37;99403.28;;;8.31;100.00
51807;BME280;37865;51.304;9.536;2023-11-19T01:42:03;99393.56;;;8.35;100.00
51807;BME280;37865;51.304;9.536;2023-11-19T01:44:28;99401.19;;;8.38;100.00
51807;BME280;37865;51.304;9.536;2023-11-19T01:46:53;99398.25;;;8.39;100.00
51807;BME280;37865;51.304;9.536;2023-11-19T01:49:19;99412.16;;;8.43;100.00
51807;BME280;37865;51.304;9.536;2023-11-19T01:51:45;99402.69;;;8.45;100.00
51807;BME280;37865;51.304;9.536;2023-11-19T01:54:10;99417.91;;;8.46;100.00
51807;BME280;37865;51.304;9.536;2023-11-19T01:56:36;99410.31;;;8.48;100.00
51807;BME280;37865;51.304;9.536;2023-11-19T01:59:05;99412.28;;;8.53;100.00
51807;BME280;37865;51.304;9.536;2023-11-19T02:01:32;99407.44;;;8.55;100.00
51807;BME280;37865;51.304;9.536;2023-11-19T02:03:59;99409.09;;;8.56;100.00
51807;BME280;37865;51.304;9.536;2023-11-19T02:06:26;99408.00;;;8.57;100.00
51807;BME280;37865;51.304;9.536;2023-11-19T02:08:52;99400.69;;;8.57;100.00
51807;BME280;37865;51.304;9.536;2023-11-19T02:11:17;99409.41;;;8.59;100.00
51807;BME280;37865;51.304;9.536;2023-11-19T02:13:43;99402.13;;;8.65;100.00
51807;BME280;37865;51.304;9.536;2023-11-19T02:16:09;99404.84;;;8.65;100.00
51807;BME280;37865;51.304;9.536;2023-11-19T02:18:36;99414.41;;;8.67;100.00
51807;BME280;37865;51.304;9.536;2023-11-19T02:21:01;99415.81;;;8.70;100.00
51807;BME280;37865;51.304;9.536;2023-11-19T02:23:27;99408.72;;;8.69;100.00
51807;BME280;37865;51.304;9.536;2023-11-19T02:26:02;99404.69;;;8.71;100.00
51807;BME280;37865;51.304;9.536;2023-11-19T02:28:27;99401.97;;;8.71;100.00
51807;BME280;37865;51.304;9.536;2023-11-19T02:30:52;99396.25;;;8.73;100.00
51807;BME280;37865;51.304;9.536;2023-11-19T02:33:18;99390.59;;;8.74;100.00
51807;BME280;37865;51.304;9.536;2023-11-19T02:35:43;99395.19;;;8.74;100.00
51807;BME280;37865;51.304;9.536;2023-11-19T02:38:08;99396.59;;;8.76;100.00
51807;BME280;37865;51.304;9.536;2023-11-19T02:40:34;99386.31;;;8.78;100.00
51807;BME280;37865;51.304;9.536;2023-11-19T02:42:59;99378.44;;;8.82;100.00
51807;BME280;37865;51.304;9.536;2023-11-19T02:45:25;99372.44;;;8.80;100.00
51807;BME280;37865;51.304;9.536;2023-11-19T02:47:51;99368.16;;;8.84;100.00
51807;BME280;37865;51.304;9.536;2023-11-19T02:50:17;99351.00;;;8.83;100.00
51807;BME280;37865;51.304;9.536;2023-11-19T02:52:42;99341.78;;;8.84;100.00
51807;BME280;37865;51.304;9.536;2023-11-19T02:55:08;99346.13;;;8.85;100.00
51807;BME280;37865;51.304;9.536;2023-11-19T02:57:35;99347.22;;;8.84;100.00
51807;BME280;37865;51.304;9.536;2023-11-19T03:00:00;99339.38;;;8.88;100.00
51807;BME280;37865;51.304;9.536;2023-11-19T03:02:25;99345.63;;;8.88;100.00
51807;BME280;37865;51.304;9.536;2023-11-19T03:04:58;99324.44;;;8.90;100.00
51807;BME280;37865;51.304;9.536;2023-11-19T03:07:24;99313.31;;;8.92;100.00
51807;BME280;37865;51.304;9.536;2023-11-19T03:09:49;99324.75;;;8.94;100.00
51807;BME280;37865;51.304;9.536;2023-11-19T03:12:14;99322.03;;;8.94;100.00
51807;BME280;37865;51.304;9.536;2023-11-19T03:14:40;99320.16;;;8.95;100.00
51807;BME280;37865;51.304;9.536;2023-11-19T03:17:05;99315.22;;;8.91;100.00
51807;BME280;37865;51.304;9.536;2023-11-19T03:19:30;99308.72;;;8.93;100.00
51807;BME280;37865;51.304;9.536;2023-11-19T03:21:55;99312.81;;;8.95;100.00
51807;BME280;37865;51.304;9.536;2023-11-19T03:24:21;99300.28;;;8.94;100.00
51807;BME280;37865;51.304;9.536;2023-11-19T03:26:50;99299.22;;;8.95;100.00
51807;BME280;37865;51.304;9.536;2023-11-19T03:29:15;99297.25;;;8.90;100.00
51807;BME280;37865;51.304;9.536;2023-11-19T03:31:43;99291.81;;;8.90;100.00
51807;BME280;37865;51.304;9.536;2023-11-19T03:34:09;99289.94;;;8.91;100.00
51807;BME280;37865;51.304;9.536;2023-11-19T03:36:34;99294.03;;;8.93;100.00
51807;BME280;37865;51.304;9.536;2023-11-19T03:39:00;99286.94;;;8.93;100.00
51807;BME280;37865;51.304;9.536;2023-11-19T03:41:25;99296.75;;;8.93;100.00
51807;BME280;37865;51.304;9.536;2023-11-19T03:43:50;99286.69;;;8.94;100.00
51807;BME280;37865;51.304;9.536;2023-11-19T03:46:18;99282.91;;;8.95;100.00
51807;BME280;37865;51.304;9.536;2023-11-19T03:48:43;99275.00;;;8.93;100.00
51807;BME280;37865;51.304;9.536;2023-11-19T03:51:08;99266.03;;;8.93;100.00
51807;BME280;37865;51.304;9.536;2023-11-19T03:53:34;99283.97;;;8.94;100.00
51807;BME280;37865;51.304;9.536;2023-11-19T03:55:59;99283.16;;;8.93;100.00
51807;BME280;37865;51.304;9.536;2023-11-19T03:58:24;99264.09;;;8.93;100.00
51807;BME280;37865;51.304;9.536;2023-11-19T04:00:49;99264.94;;;8.94;100.00
51807;BME280;37865;51.304;9.536;2023-11-19T04:03:14;99263.88;;;8.95;100.00
51807;BME280;37865;51.304;9.536;2023-11-19T04:05:39;99266.06;;;8.98;100.00
51807;BME280;37865;51.304;9.536;2023-11-19T04:08:05;99254.13;;;8.99;100.00
51807;BME280;37865;51.304;9.536;2023-11-19T04:10:30;99237.28;;;9.02;100.00
51807;BME280;37865;51.304;9.536;2023-11-19T04:12:55;99236.22;;;9.03;100.00
51807;BME280;37865;51.304;9.536;2023-11-19T04:15:21;99232.97;;;9.06;100.00
51807;BME280;37865;51.304;9.536;2023-11-19T04:17:46;99239.78;;;9.09;100.00
51807;BME280;37865;51.304;9.536;2023-11-19T04:20:11;99248.22;;;9.07;100.00
51807;BME280;37865;51.304;9.536;2023-11-19T04:22:38;99233.84;;;9.12;100.00
51807;BME280;37865;51.304;9.536;2023-11-19T04:25:03;99245.28;;;9.14;100.00
51807;BME280;37865;51.304;9.536;2023-11-19T04:27:29;99273.63;;;9.18;100.00
51807;BME280;37865;51.304;9.536;2023-11-19T04:29:55;99285.06;;;9.20;100.00
51807;BME280;37865;51.304;9.536;2023-11-19T04:32:20;99272.84;;;9.22;100.00
51807;BME280;37865;51.304;9.536;2023-11-19T04:34:46;99266.03;;;9.25;100.00
51807;BME280;37865;51.304;9.536;2023-11-19T04:37:11;99262.25;;;9.26;100.00
51807;BME280;37865;51.304;9.536;2023-11-19T04:39:36;99275.09;;;9.30;100.00
51807;BME280;37865;51.304;9.536;2023-11-19T04:42:02;99266.66;;;9.32;100.00
51807;BME280;37865;51.304;9.536;2023-11-19T04:44:27;99253.88;;;9.32;100.00
51807;BME280;37865;51.304;9.536;2023-11-19T04:46:54;99254.44;;;9.34;100.00
51807;BME280;37865;51.304;9.536;2023-11-19T04:49:19;99250.63;;;9.35;100.00
51807;BME280;37865;51.304;9.536;2023-11-19T04:51:45;99245.50;;;9.39;100.00
51807;BME280;37865;51.304;9.536;2023-11-19T04:54:12;99244.97;;;9.42;100.00
51807;BME280;37865;51.304;9.536;2023-11-19T04:56:37;99243.66;;;9.44;100.00
51807;BME280;37865;51.304;9.536;2023-11-19T04:59:03;99234.16;;;9.47;100.00
51807;BME280;37865;51.304;9.536;2023-11-19T05:01:28;99240.72;;;9.51;100.00
51807;BME280;37865;51.304;9.536;2023-11-19T05:03:53;99239.38;;;9.53;100.00
51807;BME280;37865;51.304;9.536;2023-11-19T05:06:18;99231.22;;;9.53;100.00
51807;BME280;37865;51.304;9.536;2023-11-19T05:08:44;99233.09;;;9.53;100.00
51807;BME280;37865;51.304;9.536;2023-11-19T05:11:09;99233.66;;;9.55;100.00
51807;BME280;37865;51.304;9.536;2023-11-19T05:13:37;99223.34;;;9.57;100.00
51807;BME280;37865;51.304;9.536;2023-11-19T05:16:02;99236.13;;;9.56;100.00
51807;BME280;37865;51.304;9.536;2023-11-19T05:18:27;99232.88;;;9.59;100.00
51807;BME280;37865;51.304;9.536;2023-11-19T05:20:52;99228.00;;;9.61;100.00
51807;BME280;37865;51.304;9.536;2023-11-19T05:23:17;99223.91;;;9.64;100.00
51807;BME280;37865;51.304;9.536;2023-11-19T05:25:43;99213.34;;;9.67;100.00
51807;BME280;37865;51.304;9.536;2023-11-19T05:28:08;99215.78;;;9.69;100.00
51807;BME280;37865;51.304;9.536;2023-11-19T05:30:33;99222.34;;;9.73;100.00
51807;BME280;37865;51.304;9.536;2023-11-19T05:32:58;99219.34;;;9.74;100.00
51807;BME280;37865;51.304;9.536;2023-11-19T05:35:23;99218.00;;;9.77;100.00
51807;BME280;37865;51.304;9.536;2023-11-19T05:37:49;99218.56;;;9.79;100.00
51807;BME280;37865;51.304;9.536;2023-11-19T05:40:15;99220.22;;;9.80;100.00
51807;BME280;37865;51.304;9.536;2023-11-19T05:42:40;99227.84;;;9.83;100.00
51807;BME280;37865;51.304;9.536;2023-11-19T05:45:06;99223.22;;;9.84;100.00
51807;BME280;37865;51.304;9.536;2023-11-19T05:47:32;99212.34;;;9.84;100.00
51807;BME280;37865;51.304;9.536;2023-11-19T05:49:58;99222.72;;;9.87;100.00
51807;BME280;37865;51.304;9.536;2023-11-19T05:52:23;99226.78;;;9.89;100.00
51807;BME280;37865;51.304;9.536;2023-11-19T05:54:48;99218.13;;;9.92;100.00
51807;BME280;37865;51.304;9.536;2023-11-19T05:57:16;99209.13;;;9.92;100.00
51807;BME280;37865;51.304;9.536;2023-11-19T05:59:45;99220.56;;;9.94;100.00
51807;BME280;37865;51.304;9.536;2023-11-19T06:02:10;99216.50;;;9.96;100.00
51807;BME280;37865;51.304;9.536;2023-11-19T06:04:35;99226.06;;;9.99;100.00
51807;BME280;37865;51.304;9.536;2023-11-19T06:07:01;99232.31;;;9.99;100.00
51807;BME280;37865;51.304;9.536;2023-11-19T06:09:26;99230.94;;;10.02;100.00
51807;BME280;37865;51.304;9.536;2023-11-19T06:11:51;99233.72;;;10.07;100.00
51807;BME280;37865;51.304;9.536;2023-11-19T06:14:17;99239.72;;;10.09;100.00
51807;BME280;37865;51.304;9.536;2023-11-19T06:16:42;99249.31;;;10.11;100.00
51807;BME280;37865;51.304;9.536;2023-11-19T06:19:07;99244.41;;;10.13;100.00
51807;BME280;37865;51.304;9.536;2023-11-19T06:21:33;99244.41;;;10.13;100.00
51807;BME280;37865;51.304;9.536;2023-11-19T06:23:58;99244.41;;;10.13;100.00
51807;BME280;37865;51.304;9.536;2023-11-19T06:26:24;99243.88;;;10.16;100.00
51807;BME280;37865;51.304;9.536;2023-11-19T06:28:49;99251.25;;;10.16;100.00
51807;BME280;37865;51.304;9.536;2023-11-19T06:31:14;99244.69;;;10.17;100.00
51807;BME280;37865;51.304;9.536;2023-11-19T06:33:41;99233.53;;;10.18;100.00
51807;BME280;37865;51.304;9.536;2023-11-19T06:36:06;99243.63;;;10.18;100.00
51807;BME280;37865;51.304;9.536;2023-11-19T06:38:32;99250.69;;;10.19;100.00
51807;BME280;37865;51.304;9.536;2023-11-19T06:40:58;99248.53;;;10.21;100.00
51807;BME280;37865;51.304;9.536;2023-11-19T06:43:23;99243.09;;;10.21;100.00
51807;BME280;37865;51.304;9.536;2023-11-19T06:45:48;99244.19;;;10.25;100.00
51807;BME280;37865;51.304;9.536;2023-11-19T06:48:13;99242.84;;;10.27;100.00
51807;BME280;37865;51.304;9.536;2023-11-19T06:50:39;99244.47;;;10.28;100.00
51807;BME280;37865;51.304;9.536;2023-11-19T06:53:04;99257.31;;;10.33;100.00
51807;BME280;37865;51.304;9.536;2023-11-19T06:55:31;99246.97;;;10.35;100.00
51807;BME280;37865;51.304;9.536;2023-11-19T06:57:57;99247.50;;;10.37;100.00
51807;BME280;37865;51.304;9.536;2023-11-19T07:00:22;99249.16;;;10.38;100.00
51807;BME280;37865;51.304;9.536;2023-11-19T07:02:47;99251.34;;;10.41;100.00
51807;BME280;37865;51.304;9.536;2023-11-19T07:05:12;99255.72;;;10.42;100.00
51807;BME280;37865;51.304;9.536;2023-11-19T07:07:38;99262.56;;;10.44;100.00
51807;BME280;37865;51.304;9.536;2023-11-19T07:10:05;99263.34;;;10.45;100.00
51807;BME280;37865;51.304;9.536;2023-11-19T07:12:33;99261.19;;;10.47;100.00
51807;BME280;37865;51.304;9.536;2023-11-19T07:15:00;99270.50;;;10.51;100.00
51807;BME280;37865;51.304;9.536;2023-11-19T07:17:27;99261.22;;;10.52;100.00
51807;BME280;37865;51.304;9.536;2023-11-19T07:19:52;99263.66;;;10.53;100.00
51807;BME280;37865;51.304;9.536;2023-11-19T07:22:17;99266.94;;;10.56;100.00
51807;BME280;37865;51.304;9.536;2023-11-19T07:24:42;99257.41;;;10.58;100.00
51807;BME280;37865;51.304;9.536;2023-11-19T07:27:08;99254.97;;;10.62;100.00
51807;BME280;37865;51.304;9.536;2023-11-19T07:29:36;99246.25;;;10.65;100.00
51807;BME280;37865;51.304;9.536;2023-11-19T07:32:01;99267.28;;;10.69;100.00
51807;BME280;37865;51.304;9.536;2023-11-19T07:34:27;99257.75;;;10.72;100.00
51807;BME280;37865;51.304;9.536;2023-11-19T07:36:52;99262.09;;;10.73;100.00
51807;BME280;37865;51.304;9.536;2023-11-19T07:39:17;99256.91;;;10.76;100.00
51807;BME280;37865;51.304;9.536;2023-11-19T07:41:43;99253.94;;;10.78;100.00
51807;BME280;37865;51.304;9.536;2023-11-19T07:44:08;99259.41;;;10.78;100.00
51807;BME280;37865;51.304;9.536;2023-11-19T07:46:33;99257.75;;;10.77;100.00
51807;BME280;37865;51.304;9.536;2023-11-19T07:48:58;99267.03;;;10.81;100.00
51807;BME280;37865;51.304;9.536;2023-11-19T07:51:24;99258.31;;;10.84;100.00
51807;BME280;37865;51.304;9.536;2023-11-19T07:53:49;99263.50;;;10.85;100.00
51807;BME280;37865;51.304;9.536;2023-11-19T07:56:14;99261.88;;;10.89;100.00
51807;BME280;37865;51.304;9.536;2023-11-19T07:58:40;99267.31;;;10.89;100.00
51807;BME280;37865;51.304;9.536;2023-11-19T08:01:05;99265.97;;;10.92;100.00
51807;BME280;37865;51.304;9.536;2023-11-19T08:03:31;99274.72;;;10.99;100.00
51807;BME280;37865;51.304;9.536;2023-11-19T08:05:57;99271.19;;;10.98;100.00
51807;BME280;37865;51.304;9.536;2023-11-19T08:08:22;99262.97;;;11.03;100.00
51807;BME280;37865;51.304;9.536;2023-11-19T08:10:47;99246.09;;;11.16;100.00
51807;BME280;37865;51.304;9.536;2023-11-19T08:13:13;99249.94;;;11.25;100.00
51807;BME280;37865;51.304;9.536;2023-11-19T08:15:38;99253.75;;;11.40;100.00
51807;BME280;37865;51.304;9.536;2023-11-19T08:18:03;99244.75;;;11.44;100.00
51807;BME280;37865;51.304;9.536;2023-11-19T08:20:28;99251.59;;;11.47;100.00
51807;BME280;37865;51.304;9.536;2023-11-19T08:22:53;99239.56;;;11.48;100.00
51807;BME280;37865;51.304;9.536;2023-11-19T08:25:19;99247.78;;;11.53;100.00
51807;BME280;37865;51.304;9.536;2023-11-19T08:27:44;99251.84;;;11.55;100.00
51807;BME280;37865;51.304;9.536;2023-11-19T08:30:09;99254.03;;;11.58;100.00
51807;BME280;37865;51.304;9.536;2023-11-19T08:32:35;99261.69;;;11.61;100.00
51807;BME280;37865;51.304;9.536;2023-11-19T08:35:01;99268.78;;;11.62;100.00
51807;BME280;37865;51.304;9.536;2023-11-19T08:37:26;99265.75;;;11.64;100.00
51807;BME280;37865;51.304;9.536;2023-11-19T08:39:52;99268.53;;;11.69;100.00
51807;BME280;37865;51.304;9.536;2023-11-19T08:42:17;99277.81;;;11.83;100.00
51807;BME280;37865;51.304;9.536;2023-11-19T08:44:42;99268.78;;;12.02;100.00
51807;BME280;37865;51.304;9.536;2023-11-19T08:47:09;99276.66;;;12.19;100.00
51807;BME280;37865;51.304;9.536;2023-11-19T08:49:34;99279.09;;;12.31;100.00
51807;BME280;37865;51.304;9.536;2023-11-19T08:51:59;99279.03;;;12.46;100.00
51807;BME280;37865;51.304;9.536;2023-11-19T08:54:24;99285.25;;;12.66;100.00
51807;BME280;37865;51.304;9.536;2023-11-19T08:56:50;99285.16;;;12.86;100.00
51807;BME280;37865;51.304;9.536;2023-11-19T08:59:15;99285.09;;;13.07;100.00
51807;BME280;37865;51.304;9.536;2023-11-19T09:01:41;99290.19;;;13.23;100.00
51807;BME280;37865;51.304;9.536;2023-11-19T09:04:06;99297.22;;;13.34;100.00
51807;BME280;37865;51.304;9.536;2023-11-19T09:06:31;99305.47;;;13.29;100.00
51807;BME280;37865;51.304;9.536;2023-11-19T09:08:57;99301.38;;;13.27;100.00
51807;BME280;37865;51.304;9.536;2023-11-19T09:11:26;99310.97;;;13.29;100.00
51807;BME280;37865;51.304;9.536;2023-11-19T09:13:51;99316.91;;;13.41;100.00
51807;BME280;37865;51.304;9.536;2023-11-19T09:16:16;99310.44;;;13.61;100.00
51807;BME280;37865;51.304;9.536;2023-11-19T09:18:42;99315.81;;;13.76;99.00
51807;BME280;37865;51.304;9.536;2023-11-19T09:21:07;99314.78;;;14.01;98.52
51807;BME280;37865;51.304;9.536;2023-11-19T09:23:32;99324.16;;;14.28;97.39
51807;BME280;37865;51.304;9.536;2023-11-19T09:26:01;99327.13;;;14.32;96.09
51807;BME280;37865;51.304;9.536;2023-11-19T09:28:26;99326.66;;;14.20;93.38
51807;BME280;37865;51.304;9.536;2023-11-19T09:30:51;99323.19;;;14.09;91.96
51807;BME280;37865;51.304;9.536;2023-11-19T09:33:17;99326.88;;;13.95;88.21
51807;BME280;37865;51.304;9.536;2023-11-19T09:35:42;99333.56;;;13.84;86.76
51807;BME280;37865;51.304;9.536;2023-11-19T09:38:07;99327.84;;;13.80;84.82
51807;BME280;37865;51.304;9.536;2023-11-19T09:40:32;99339.03;;;13.84;84.40
51807;BME280;37865;51.304;9.536;2023-11-19T09:42:58;99349.41;;;13.92;84.10
51807;BME280;37865;51.304;9.536;2023-11-19T09:45:23;99337.31;;;13.93;84.83
51807;BME280;37865;51.304;9.536;2023-11-19T09:47:52;99353.78;;;13.93;80.21
51807;BME280;37865;51.304;9.536;2023-11-19T09:50:18;99349.88;;;13.99;82.21
51807;BME280;37865;51.304;9.536;2023-11-19T09:52:44;99347.94;;;14.04;81.62
51807;BME280;37865;51.304;9.536;2023-11-19T09:55:10;99348.16;;;14.08;79.13
51807;BME280;37865;51.304;9.536;2023-11-19T09:57:35;99335.00;;;14.05;78.09
51807;BME280;37865;51.304;9.536;2023-11-19T10:00:03;99340.78;;;14.03;78.24
51807;BME280;37865;51.304;9.536;2023-11-19T10:02:31;99337.28;;;13.98;78.62
51807;BME280;37865;51.304;9.536;2023-11-19T10:04:57;99338.44;;;13.92;76.62
51807;BME280;37865;51.304;9.536;2023-11-19T10:07:23;99338.44;;;13.92;76.48
51807;BME280;37865;51.304;9.536;2023-11-19T10:09:49;99327.19;;;13.93;78.28
51807;BME280;37865;51.304;9.536;2023-11-19T10:12:15;99328.91;;;13.84;72.68
51807;BME280;37865;51.304;9.536;2023-11-19T10:14:41;99332.13;;;13.91;75.70
51807;BME280;37865;51.304;9.536;2023-11-19T10:17:07;99319.25;;;13.92;75.48
51807;BME280;37865;51.304;9.536;2023-11-19T10:19:33;99310.63;;;14.03;77.33
51807;BME280;37865;51.304;9.536;2023-11-19T10:22:02;99316.41;;;14.02;75.65
51807;BME280;37865;51.304;9.536;2023-11-19T10:24:32;99305.69;;;14.05;76.17
51807;BME280;37865;51.304;9.536;2023-11-19T10:27:02;99302.66;;;14.07;74.40
51807;BME280;37865;51.304;9.536;2023-11-19T10:29:31;99298.66;;;14.23;73.50
51807;BME280;37865;51.304;9.536;2023-11-19T10:31:57;99293.63;;;14.35;74.62
51807;BME280;37865;51.304;9.536;2023-11-19T10:34:26;99296.59;;;14.38;74.57
51807;BME280;37865;51.304;9.536;2023-11-19T10:36:51;99301.63;;;14.55;72.73
51807;BME280;37865;51.304;9.536;2023-11-19T10:39:16;99292.28;;;14.80;72.89
51807;BME280;37865;51.304;9.536;2023-11-19T10:41:43;99296.31;;;14.87;69.97
51807;BME280;37865;51.304;9.536;2023-11-19T10:44:08;99301.28;;;14.85;68.14
51807;BME280;37865;51.304;9.536;2023-11-19T10:46:40;99298.53;;;14.85;69.28
51807;BME280;37865;51.304;9.536;2023-11-19T10:49:06;99302.69;;;14.83;69.47
51807;BME280;37865;51.304;9.536;2023-11-19T10:51:32;99280.84;;;14.73;65.14
51807;BME280;37865;51.304;9.536;2023-11-19T10:54:04;99286.78;;;14.80;64.69
51807;BME280;37865;51.304;9.536;2023-11-19T10:56:31;99284.38;;;14.97;66.57
51807;BME280;37865;51.304;9.536;2023-11-19T10:58:56;99278.56;;;14.98;65.29
51807;BME280;37865;51.304;9.536;2023-11-19T11:01:24;99284.56;;;14.82;63.64
51807;BME280;37865;51.304;9.536;2023-11-19T11:03:51;99273.13;;;14.75;64.06
51807;BME280;37865;51.304;9.536;2023-11-19T11:06:19;99271.34;;;14.84;65.97
51807;BME280;37865;51.304;9.536;2023-11-19T11:08:44;99289.47;;;14.85;63.92
51807;BME280;37865;51.304;9.536;2023-11-19T11:11:11;99277.16;;;14.82;65.67
51807;BME280;37865;51.304;9.536;2023-11-19T11:13:38;99274.25;;;14.74;64.22
51807;BME280;37865;51.304;9.536;2023-11-19T11:16:07;99270.94;;;14.95;66.30
51807;BME280;37865;51.304;9.536;2023-11-19T11:18:33;99264.63;;;14.95;67.48
51807;BME280;37865;51.304;9.536;2023-11-19T11:21:17;99262.59;;;14.82;67.31
51807;BME280;37865;51.304;9.536;2023-11-19T11:29:09;99270.97;;;14.48;65.43
51807;BME280;37865;51.304;9.536;2023-11-19T11:31:41;99269.41;;;14.42;65.80
51807;BME280;37865;51.304;9.536;2023-11-19T11:34:20;99277.69;;;14.37;65.55
51807;BME280;37865;51.304;9.536;2023-11-19T11:39:33;99277.75;;;14.32;67.66
51807;BME280;37865;51.304;9.536;2023-11-19T11:45:15;99282.97;;;14.33;70.13
51807;BME280;37865;51.304;9.536;2023-11-19T11:50:09;99284.13;;;14.22;68.82
51807;BME280;37865;51.304;9.536;2023-11-19T11:53:12;99269.38;;;14.18;68.18
51807;BME280;37865;51.304;9.536;2023-11-19T11:55:23;99284.47;;;14.16;67.96
51807;BME280;37865;51.304;9.536;2023-11-19T11:57:48;99279.22;;;14.19;69.08
51807;BME280;37865;51.304;9.536;2023-11-19T12:00:21;99272.41;;;14.17;68.03
51807;BME280;37865;51.304;9.536;2023-11-19T12:02:46;99269.31;;;14.23;68.12
51807;BME280;37865;51.304;9.536;2023-11-19T12:05:13;99272.00;;;14.33;66.27
51807;BME280;37865;51.304;9.536;2023-11-19T12:07:39;99273.03;;;14.37;65.27
51807;BME280;37865;51.304;9.536;2023-11-19T12:10:05;99273.66;;;14.53;63.43
51807;BME280;37865;51.304;9.536;2023-11-19T12:12:32;99281.69;;;14.49;62.90
51807;BME280;37865;51.304;9.536;2023-11-19T12:19:59;99283.25;;;14.56;64.65
51807;BME280;37865;51.304;9.536;2023-11-19T12:22:24;99274.06;;;14.65;65.60
51807;BME280;37865;51.304;9.536;2023-11-19T12:24:50;99278.47;;;14.66;64.60
51807;BME280;37865;51.304;9.536;2023-11-19T12:27:16;99273.84;;;14.62;63.21
51807;BME280;37865;51.304;9.536;2023-11-19T12:29:42;99277.84;;;14.69;61.76
51807;BME280;37865;51.304;9.536;2023-11-19T12:32:11;99263.38;;;14.87;60.80
51807;BME280;37865;51.304;9.536;2023-11-19T12:34:36;99262.88;;;15.04;60.53
51807;BME280;37865;51.304;9.536;2023-11-19T12:37:05;99261.03;;;15.69;59.08
51807;BME280;37865;51.304;9.536;2023-11-19T12:39:30;99252.41;;;16.89;57.57
51807;BME280;37865;51.304;9.536;2023-11-19T12:41:56;99243.00;;;17.17;55.93
51807;BME280;37865;51.304;9.536;2023-11-19T12:44:24;99255.75;;;16.64;57.86
51807;BME280;37865;51.304;9.536;2023-11-19T12:47:05;99259.06;;;16.20;57.70
51807;BME280;37865;51.304;9.536;2023-11-19T12:49:31;99257.78;;;15.67;59.20
51807;BME280;37865;51.304;9.536;2023-11-19T12:51:57;99257.94;;;15.38;60.50
51807;BME280;37865;51.304;9.536;2023-11-19T12:54:32;99261.59;;;15.15;60.48
51807;BME280;37865;51.304;9.536;2023-11-19T12:56:58;99266.56;;;14.94;60.70
51807;BME280;37865;51.304;9.536;2023-11-19T12:59:23;99257.63;;;14.84;62.00
51807;BME280;37865;51.304;9.536;2023-11-19T13:01:55;99239.25;;;14.84;60.52
51807;BME280;37865;51.304;9.536;2023-11-19T13:04:21;99240.28;;;14.88;61.41
51807;BME280;37865;51.304;9.536;2023-11-19T13:06:46;99248.03;;;14.63;62.11
51807;BME280;37865;51.304;9.536;2023-11-19T13:09:23;99260.31;;;14.46;62.17